Time;durP1;ratioP1;P1;durP2;ratioP2;P2;SDS_P1;SDS_P2;PMS_P1;PMS_P2;Temp;Humidity;BMP_temperature;BMP_pressure;BME280_temperature;BME280_humidity;BME280_pressure;Samples;Min_cycle;Max_cycle;Signal;HPM_P1;HPM_P2
2022/01/01 00:01:14;;;;;;;;;;;;;;;15.30;70.65;101977.38;5147499;27;26843;-79
2022/01/01 00:03:39;;;;;;;;;;;;;;;15.28;70.48;101984.38;5145769;27;47819;-79
2022/01/01 00:06:05;;;;;;;;;;;;;;;15.25;70.40;101976.66;5145031;27;51042;-79
2022/01/01 00:08:30;;;;;;;;;;;;;;;15.25;70.76;101975.78;5144370;27;56231;-79
2022/01/01 00:10:55;;;;;;;;;;;;;;;15.23;70.20;101973.22;5145619;27;42012;-79
2022/01/01 00:13:20;;;;;;;;;;;;;;;15.21;70.78;101985.44;5143447;27;53911;-79
2022/01/01 00:15:45;;;;;;;;;;;;;;;15.20;70.81;101983.72;5144310;27;47829;-79
2022/01/01 00:18:10;;;;;;;;;;;;;;;15.17;70.65;101989.00;5143152;27;57183;-79
2022/01/01 00:20:36;;;;;;;;;;;;;;;15.16;70.77;101992.47;5143684;27;27016;-79
2022/01/01 00:23:01;;;;;;;;;;;;;;;15.14;70.81;101988.22;5142502;27;55700;-79
2022/01/01 00:25:27;;;;;;;;;;;;;;;15.13;70.57;101997.78;5143272;27;27070;-79
2022/01/01 00:27:53;;;;;;;;;;;;;;;15.06;70.77;101995.34;5144597;27;26846;-79
2022/01/01 00:30:18;;;;;;;;;;;;;;;15.12;70.76;102005.59;5145878;27;26853;-79
2022/01/01 00:32:45;;;;;;;;;;;;;;;15.10;70.69;102003.06;5145314;27;38768;-78
2022/01/01 00:35:10;;;;;;;;;;;;;;;15.09;70.80;101998.75;5145944;27;26863;-79
2022/01/01 00:37:35;;;;;;;;;;;;;;;15.07;71.01;102008.31;5144913;27;26911;-79
2022/01/01 00:40:00;;;;;;;;;;;;;;;15.07;70.93;102013.50;5144483;27;33242;-78
2022/01/01 00:42:25;;;;;;;;;;;;;;;15.03;70.90;102005.84;5144523;27;26575;-80
2022/01/01 00:44:51;;;;;;;;;;;;;;;15.01;71.03;102026.69;5144828;27;26838;-78
2022/01/01 00:47:16;;;;;;;;;;;;;;;14.99;71.07;102023.28;5144693;27;27898;-79
2022/01/01 00:49:41;;;;;;;;;;;;;;;14.98;70.81;102029.38;5143503;27;53968;-79
2022/01/01 00:52:07;;;;;;;;;;;;;;;14.95;71.22;102021.63;5145020;27;27498;-79
2022/01/01 00:54:32;;;;;;;;;;;;;;;14.96;71.07;102024.19;5146570;27;26795;-79
2022/01/01 00:56:57;;;;;;;;;;;;;;;14.95;71.38;102024.25;5145242;27;45681;-79
2022/01/01 00:59:22;;;;;;;;;;;;;;;14.93;71.38;102026.00;5146205;27;26933;-79
2022/01/01 01:01:47;;;;;;;;;;;;;;;14.92;71.43;102029.53;5144026;27;34395;-79
2022/01/01 01:04:12;;;;;;;;;;;;;;;14.93;71.22;102026.00;5144414;27;26817;-79
2022/01/01 01:06:38;;;;;;;;;;;;;;;14.89;71.23;102029.56;5144554;27;43590;-79
2022/01/01 01:09:03;;;;;;;;;;;;;;;14.92;71.36;102039.94;5143966;27;26915;-79
2022/01/01 01:11:28;;;;;;;;;;;;;;;14.89;71.60;102024.38;5144014;27;28564;-79
2022/01/01 01:14:07;;;;;;;;;;;;;;;14.90;71.14;102036.50;5144371;27;26771;-79
2022/01/01 01:16:32;;;;;;;;;;;;;;;14.87;71.46;102028.75;5144095;27;27392;-79
2022/01/01 01:18:57;;;;;;;;;;;;;;;14.85;71.82;102038.31;5143668;27;26988;-78
2022/01/01 01:21:23;;;;;;;;;;;;;;;14.87;71.37;102036.56;5143685;27;27157;-79
2022/01/01 01:23:49;;;;;;;;;;;;;;;14.85;71.63;102033.13;5144066;27;26382;-79
2022/01/01 01:26:14;;;;;;;;;;;;;;;14.85;71.47;102033.13;5143110;27;26875;-79
2022/01/01 01:28:46;;;;;;;;;;;;;;;14.85;71.35;102030.53;5143122;27;26716;-79
2022/01/01 01:31:11;;;;;;;;;;;;;;;14.84;71.46;102028.84;5143755;27;26950;-79
2022/01/01 01:33:36;;;;;;;;;;;;;;;14.85;71.60;102033.13;5142578;27;26810;-79
2022/01/01 01:36:02;;;;;;;;;;;;;;;14.82;71.47;102022.81;5141740;27;43283;-79
2022/01/01 01:38:27;;;;;;;;;;;;;;;14.82;71.49;102033.19;5142952;27;26842;-79
2022/01/01 01:40:52;;;;;;;;;;;;;;;14.81;71.60;102028.91;5142606;27;26807;-78
2022/01/01 01:43:17;;;;;;;;;;;;;;;14.81;71.65;102032.34;5142089;27;51052;-79
2022/01/01 01:45:44;;;;;;;;;;;;;;;14.83;71.45;102032.31;5142006;27;54780;-79
2022/01/01 01:48:09;;;;;;;;;;;;;;;14.86;71.58;102027.03;5149087;27;26818;-79
2022/01/01 01:50:37;;;;;;;;;;;;;;;14.86;71.40;102032.25;5145976;27;54005;-79
2022/01/01 01:53:02;;;;;;;;;;;;;;;14.87;71.45;102026.16;5145525;27;26589;-79
2022/01/01 01:55:27;;;;;;;;;;;;;;;14.88;71.45;102028.72;5145089;27;26760;-79
2022/01/01 01:57:53;;;;;;;;;;;;;;;14.88;71.45;102014.88;5145035;27;26657;-79
2022/01/01 02:02:47;;;;;;;;;;;;;;;14.89;71.63;102026.97;5140305;27;26969;-79
2022/01/01 02:05:12;;;;;;;;;;;;;;;14.89;71.46;102030.44;5142688;27;50941;-79
2022/01/01 02:07:37;;;;;;;;;;;;;;;14.90;71.57;102031.28;5141867;27;48242;-79
2022/01/01 02:10:04;;;;;;;;;;;;;;;14.89;71.55;102030.44;5141499;27;47224;-79
2022/01/01 02:12:29;;;;;;;;;;;;;;;14.90;71.69;102031.28;5141566;27;26800;-79
2022/01/01 02:17:27;;;;;;;;;;;;;;;14.85;71.97;102043.53;5141455;27;26993;-79
2022/01/01 02:19:55;;;;;;;;;;;;;;;14.84;71.84;102034.03;5146405;27;26816;-79
2022/01/01 02:22:21;;;;;;;;;;;;;;;14.88;71.81;102033.09;5145262;27;26921;-79
2022/01/01 02:24:47;;;;;;;;;;;;;;;14.93;71.55;102031.22;5146220;27;26726;-79
2022/01/01 02:27:12;;;;;;;;;;;;;;;14.95;71.58;102024.25;5146383;27;26748;-79
2022/01/01 02:29:38;;;;;;;;;;;;;;;14.97;71.47;102025.03;5145838;27;26786;-79
2022/01/01 02:32:06;;;;;;;;;;;;;;;14.98;71.48;102029.38;5145149;27;27059;-79
2022/01/01 02:34:31;;;;;;;;;;;;;;;14.99;71.49;102036.28;5143952;27;26718;-79
2022/01/01 02:36:57;;;;;;;;;;;;;;;14.99;71.58;102038.91;5144049;27;55242;-79
2022/01/01 02:39:22;;;;;;;;;;;;;;;14.97;71.31;102053.66;5143704;27;56303;-79
2022/01/01 02:41:50;;;;;;;;;;;;;;;14.95;71.37;102050.25;5144867;27;27095;-79
2022/01/01 02:44:16;;;;;;;;;;;;;;;14.91;71.46;102064.22;5144137;27;26994;-79
2022/01/01 02:46:41;;;;;;;;;;;;;;;14.89;71.87;102061.66;5145744;27;26818;-79
2022/01/01 02:49:06;;;;;;;;;;;;;;;14.88;71.81;102070.34;5145579;27;26898;-79
2022/01/01 02:51:32;;;;;;;;;;;;;;;14.89;71.80;102066.84;5145578;27;27002;-79
2022/01/01 02:53:57;;;;;;;;;;;;;;;14.91;71.60;102064.22;5145665;27;26781;-79
2022/01/01 02:56:23;;;;;;;;;;;;;;;14.88;71.79;102059.09;5145251;27;26568;-79
2022/01/01 02:58:48;;;;;;;;;;;;;;;14.89;71.62;102056.44;5145167;27;27024;-79
2022/01/01 03:01:13;;;;;;;;;;;;;;;14.91;71.90;102069.44;5144277;27;26921;-79
2022/01/01 03:03:39;;;;;;;;;;;;;;;14.90;71.69;102052.09;5144701;27;27636;-79
2022/01/01 03:06:04;;;;;;;;;;;;;;;14.90;71.50;102067.72;5146036;27;27000;-79
2022/01/01 03:08:29;;;;;;;;;;;;;;;14.89;71.76;102060.78;5144525;27;26960;-79
2022/01/01 03:10:54;;;;;;;;;;;;;;;14.88;71.49;102059.94;5145453;27;26748;-79
2022/01/01 03:13:19;;;;;;;;;;;;;;;14.88;71.55;102059.09;5144348;27;40028;-79
2022/01/01 03:15:45;;;;;;;;;;;;;;;14.90;71.78;102052.09;5143651;27;54435;-79
2022/01/01 03:18:10;;;;;;;;;;;;;;;14.91;71.47;102059.03;5144011;27;26918;-79
2022/01/01 03:20:35;;;;;;;;;;;;;;;14.90;71.43;102057.31;5145970;27;26655;-79
2022/01/01 03:23:01;;;;;;;;;;;;;;;14.90;71.62;102065.09;5144486;27;26722;-79
2022/01/01 03:25:26;;;;;;;;;;;;;;;14.89;71.58;102071.19;5144948;27;27033;-79
2022/01/01 03:27:51;;;;;;;;;;;;;;;14.88;71.51;102066.91;5143424;27;26879;-80
2022/01/01 03:30:17;;;;;;;;;;;;;;;14.86;71.49;102066.06;5143100;27;54487;-79
2022/01/01 03:32:42;;;;;;;;;;;;;;;14.87;71.78;102059.97;5144494;27;26815;-79
2022/01/01 03:35:07;;;;;;;;;;;;;;;14.88;71.81;102054.72;5144220;27;55145;-79
2022/01/01 03:37:32;;;;;;;;;;;;;;;14.90;71.62;102062.50;5144073;27;28056;-79
2022/01/01 03:39:58;;;;;;;;;;;;;;;14.90;71.53;102059.91;5143231;27;54088;-79
2022/01/01 03:42:23;;;;;;;;;;;;;;;14.87;71.33;102054.78;5143976;27;32216;-79
2022/01/01 03:44:48;;;;;;;;;;;;;;;14.88;71.50;102059.09;5144183;27;27034;-79
2022/01/01 03:47:13;;;;;;;;;;;;;;;14.89;71.33;102060.78;5150086;27;57044;-79
2022/01/01 03:49:39;;;;;;;;;;;;;;;14.90;71.72;102052.09;5147307;27;54304;-79
2022/01/01 03:52:05;;;;;;;;;;;;;;;14.90;71.42;102062.50;5146794;27;27986;-79
2022/01/01 03:54:30;;;;;;;;;;;;;;;14.87;71.43;102037.44;5145766;27;26733;-79
2022/01/01 03:56:55;;;;;;;;;;;;;;;14.88;71.35;102053.91;5144141;27;56657;-78
2022/01/01 03:59:20;;;;;;;;;;;;;;;14.88;71.37;102053.91;5144213;27;26874;-78
2022/01/01 04:01:46;;;;;;;;;;;;;;;14.87;71.50;102053.03;5143580;27;28236;-78
2022/01/01 04:04:12;;;;;;;;;;;;;;;14.86;71.45;102051.31;5144310;27;26935;-78
2022/01/01 04:06:37;;;;;;;;;;;;;;;14.86;71.38;102055.66;5142951;27;27753;-78
2022/01/01 04:09:02;;;;;;;;;;;;;;;14.83;71.41;102056.59;5141537;27;41385;-78
2022/01/01 04:11:28;;;;;;;;;;;;;;;14.82;71.41;102054.00;5141368;27;27741;-78
2022/01/01 04:13:53;;;;;;;;;;;;;;;14.82;71.25;102054.88;5143139;27;27051;-78
2022/01/01 04:16:19;;;;;;;;;;;;;;;14.83;71.56;102050.53;5140972;27;54330;-78
2022/01/01 04:18:45;;;;;;;;;;;;;;;14.82;71.25;102052.28;5142509;27;26990;-78
2022/01/01 04:21:11;;;;;;;;;;;;;;;14.83;71.47;102051.38;5141977;27;27616;-78
2022/01/01 04:23:36;;;;;;;;;;;;;;;14.82;71.20;102056.63;5147076;27;26575;-78
2022/01/01 04:26:02;;;;;;;;;;;;;;;14.83;71.69;102056.59;5146175;27;26859;-78
2022/01/01 04:28:27;;;;;;;;;;;;;;;14.85;71.42;102048.72;5145370;27;26941;-78
2022/01/01 04:30:52;;;;;;;;;;;;;;;14.86;71.53;102060.84;5143618;27;26881;-78
2022/01/01 04:33:18;;;;;;;;;;;;;;;14.84;71.20;102052.25;5141929;27;54001;-78
2022/01/01 04:35:43;;;;;;;;;;;;;;;14.84;71.43;102067.84;5141168;27;55315;-78
2022/01/01 04:38:19;;;;;;;;;;;;;;;14.84;71.40;102070.47;5141054;27;49341;-78
2022/01/01 04:40:45;;;;;;;;;;;;;;;14.82;71.21;102075.69;5140677;27;27105;-78
2022/01/01 04:43:10;;;;;;;;;;;;;;;14.83;71.53;102071.34;5141845;27;54123;-78
2022/01/01 04:45:35;;;;;;;;;;;;;;;14.83;71.39;102076.53;5141899;27;56487;-78
2022/01/01 04:48:00;;;;;;;;;;;;;;;14.82;71.50;102080.03;5142161;27;55087;-78
2022/01/01 04:50:25;;;;;;;;;;;;;;;14.81;71.37;102073.13;5142232;27;56251;-78
2022/01/01 04:52:53;;;;;;;;;;;;;;;14.82;71.48;102090.44;5141952;27;53997;-79
2022/01/01 04:55:18;;;;;;;;;;;;;;;14.82;71.41;102090.44;5142700;27;26818;-79
2022/01/01 04:57:43;;;;;;;;;;;;;;;14.83;71.50;102081.75;5141857;27;26900;-78
2022/01/01 05:00:08;;;;;;;;;;;;;;;14.83;71.39;102081.75;5141379;27;56250;-78
2022/01/01 05:02:33;;;;;;;;;;;;;;;14.82;71.61;102091.28;5142580;27;26875;-78
2022/01/01 05:04:59;;;;;;;;;;;;;;;14.84;71.54;102093.88;5142562;27;26948;-79
2022/01/01 05:07:24;;;;;;;;;;;;;;;14.83;71.41;102086.94;5141214;27;54321;-78
2022/01/01 05:09:49;;;;;;;;;;;;;;;14.82;71.07;102096.50;5141493;27;27038;-78
2022/01/01 05:12:14;;;;;;;;;;;;;;;14.83;71.61;102076.53;5140505;27;55201;-79
2022/01/01 05:14:39;;;;;;;;;;;;;;;14.86;71.23;102076.47;5143358;27;28068;-78
2022/01/01 05:17:05;;;;;;;;;;;;;;;14.87;71.45;102083.38;5142622;27;47809;-78
2022/01/01 05:19:30;;;;;;;;;;;;;;;14.88;71.30;102085.13;5143875;27;26859;-78
2022/01/01 05:21:55;;;;;;;;;;;;;;;14.89;71.50;102102.41;5143701;27;26791;-78
2022/01/01 05:24:21;;;;;;;;;;;;;;;14.90;71.34;102104.13;5142185;27;55536;-78
2022/01/01 05:26:46;;;;;;;;;;;;;;;14.88;71.36;102105.94;5145664;27;26963;-78
2022/01/01 05:29:12;;;;;;;;;;;;;;;14.90;71.46;102098.94;5143292;27;26827;-78
2022/01/01 05:31:37;;;;;;;;;;;;;;;14.92;71.58;102089.34;5124466;27;26809;-79
2022/01/01 05:34:03;;;;;;;;;;;;;;;14.95;71.35;102081.47;5141755;27;56939;-79
2022/01/01 05:36:29;;;;;;;;;;;;;;;14.97;71.33;102084.88;5143420;27;26746;-79
2022/01/01 05:38:54;;;;;;;;;;;;;;;14.97;71.12;102084.88;5143398;27;26721;-78
2022/01/01 05:41:19;;;;;;;;;;;;;;;14.98;71.42;102076.19;5143441;27;26811;-78
2022/01/01 05:43:44;;;;;;;;;;;;;;;14.99;71.40;102073.56;5143261;27;27047;-78
2022/01/01 05:46:09;;;;;;;;;;;;;;;15.00;71.33;102084.81;5147868;27;53736;-78
2022/01/01 05:48:35;;;;;;;;;;;;;;;14.99;71.16;102080.53;5144611;27;26724;-78
2022/01/01 05:51:00;;;;;;;;;;;;;;;14.98;71.32;102065.78;5146102;27;26736;-78
2022/01/01 05:53:25;;;;;;;;;;;;;;;14.99;71.10;102070.13;5147783;27;26999;-78
2022/01/01 05:55:50;;;;;;;;;;;;;;;14.99;71.37;102077.91;5145761;27;41867;-79
2022/01/01 05:58:16;;;;;;;;;;;;;;;14.99;71.14;102093.53;5146345;27;27008;-78
2022/01/01 06:00:41;;;;;;;;;;;;;;;14.96;71.42;102089.22;5146613;27;26966;-78
2022/01/01 06:03:07;;;;;;;;;;;;;;;14.94;71.13;102097.97;5146245;27;27093;-78
2022/01/01 06:05:32;;;;;;;;;;;;;;;14.92;71.37;102097.16;5146746;27;26791;-79
2022/01/01 06:07:58;;;;;;;;;;;;;;;14.92;71.61;102084.97;5145121;27;27099;-78
2022/01/01 06:10:24;;;;;;;;;;;;;;;14.96;71.30;102090.97;5145325;27;26929;-78
2022/01/01 06:12:49;;;;;;;;;;;;;;;14.97;71.30;102084.88;5145296;27;26961;-78
2022/01/01 06:15:14;;;;;;;;;;;;;;;14.98;71.51;102087.47;5144893;27;26849;-79
2022/01/01 06:17:39;;;;;;;;;;;;;;;14.99;71.71;102088.34;5144771;27;26820;-78
2022/01/01 06:20:05;;;;;;;;;;;;;;;15.01;71.24;102086.53;5145480;27;26776;-78
2022/01/01 06:22:30;;;;;;;;;;;;;;;15.02;71.22;102093.47;5144880;27;26937;-78
2022/01/01 06:24:56;;;;;;;;;;;;;;;15.02;71.29;102098.66;5145154;27;26862;-78
2022/01/01 06:27:21;;;;;;;;;;;;;;;15.03;71.19;102099.53;5144786;27;27093;-78
2022/01/01 06:29:47;;;;;;;;;;;;;;;15.01;71.40;102094.34;5144639;27;39132;-78
2022/01/01 06:32:12;;;;;;;;;;;;;;;15.01;71.41;102089.13;5144486;27;26885;-80
2022/01/01 06:34:38;;;;;;;;;;;;;;;15.00;71.45;102098.69;5145333;27;26890;-81
2022/01/01 06:37:03;;;;;;;;;;;;;;;15.00;71.40;102090.00;5156620;27;26809;-80
2022/01/01 06:39:28;;;;;;;;;;;;;;;14.98;71.62;102097.00;5153472;27;26823;-80
2022/01/01 06:41:53;;;;;;;;;;;;;;;15.00;71.46;102095.22;5149215;27;27026;-80
2022/01/01 06:44:18;;;;;;;;;;;;;;;15.00;71.75;102088.28;5148210;27;34936;-81
2022/01/01 06:46:43;;;;;;;;;;;;;;;15.04;71.42;102091.66;5146685;27;56385;-80
2022/01/01 06:49:09;;;;;;;;;;;;;;;15.06;71.39;102095.09;5145722;27;54130;-80
2022/01/01 06:51:36;;;;;;;;;;;;;;;15.06;71.57;102100.31;5146993;27;26738;-80
2022/01/01 06:54:01;;;;;;;;;;;;;;;15.07;71.37;102085.56;5146569;27;26905;-80
2022/01/01 06:56:26;;;;;;;;;;;;;;;15.06;71.27;102089.91;5146286;27;26878;-80
2022/01/01 06:58:51;;;;;;;;;;;;;;;15.07;71.54;102086.38;5146652;27;26836;-80
2022/01/01 07:01:17;;;;;;;;;;;;;;;15.08;71.71;102095.91;5144699;27;56204;-80
2022/01/01 07:03:42;;;;;;;;;;;;;;;15.08;71.40;102098.50;5144197;27;26871;-80
2022/01/01 07:06:07;;;;;;;;;;;;;;;15.10;71.34;102091.53;5145965;27;27876;-80
2022/01/01 07:08:32;;;;;;;;;;;;;;;15.11;71.37;102098.44;5145668;27;27058;-80
2022/01/01 07:10:57;;;;;;;;;;;;;;;15.12;71.30;102105.34;5125643;27;39680;-81
2022/01/01 07:13:24;;;;;;;;;;;;;;;15.13;71.53;102101.88;5144727;27;54316;-80
2022/01/01 07:15:50;;;;;;;;;;;;;;;15.12;71.55;102100.16;5145959;27;27591;-80
2022/01/01 07:18:15;;;;;;;;;;;;;;;15.13;71.69;102104.47;5144749;27;26925;-81
2022/01/01 07:20:40;;;;;;;;;;;;;;;15.15;71.48;102110.50;5144562;27;56193;-80
2022/01/01 07:23:05;;;;;;;;;;;;;;;15.16;71.73;102112.22;5144450;27;53323;-78
2022/01/01 07:25:31;;;;;;;;;;;;;;;15.19;71.66;102117.34;5143772;27;57287;-80
2022/01/01 07:27:56;;;;;;;;;;;;;;;15.21;71.68;102120.78;5144984;27;26832;-80
2022/01/01 07:30:21;;;;;;;;;;;;;;;15.23;71.55;102128.53;5144639;27;27055;-80
2022/01/01 07:32:47;;;;;;;;;;;;;;;15.24;71.67;102125.91;5143824;27;48008;-80
2022/01/01 07:35:13;;;;;;;;;;;;;;;15.25;71.33;102125.03;5145115;27;26959;-80
2022/01/01 07:37:38;;;;;;;;;;;;;;;15.27;71.56;102131.03;5144836;27;26857;-80
2022/01/01 07:40:05;;;;;;;;;;;;;;;15.28;71.39;102126.69;5144049;27;26988;-77
2022/01/01 07:42:30;;;;;;;;;;;;;;;15.29;71.23;102131.00;5129864;27;26799;-80
2022/01/01 07:44:55;;;;;;;;;;;;;;;15.29;71.33;102137.09;5153010;27;56805;-81
2022/01/01 07:47:20;;;;;;;;;;;;;;;15.30;71.29;102146.56;5148442;27;26242;-78
2022/01/01 07:49:46;;;;;;;;;;;;;;;15.31;71.52;102148.31;5144177;27;56548;-78
2022/01/01 07:52:11;;;;;;;;;;;;;;;15.32;71.49;102147.41;5142644;27;55392;-78
2022/01/01 07:54:36;;;;;;;;;;;;;;;15.34;71.65;102157.78;5143393;27;27493;-80
2022/01/01 07:57:01;;;;;;;;;;;;;;;15.34;71.67;102157.78;5143820;27;26984;-80
2022/01/01 07:59:26;;;;;;;;;;;;;;;15.34;71.62;102157.78;5143999;27;26760;-78
2022/01/01 08:01:52;;;;;;;;;;;;;;;15.34;71.57;102158.63;5143664;27;53719;-78
2022/01/01 08:04:17;;;;;;;;;;;;;;;15.34;71.80;102168.19;5142830;27;56602;-78
2022/01/01 08:06:42;;;;;;;;;;;;;;;15.34;71.79;102157.78;5143037;27;54048;-78
2022/01/01 08:09:07;;;;;;;;;;;;;;;15.35;71.54;102157.75;5141594;27;51749;-78
2022/01/01 08:11:32;;;;;;;;;;;;;;;15.37;71.52;102155.97;5142524;27;26975;-78
2022/01/01 08:13:57;;;;;;;;;;;;;;;15.38;71.40;102147.25;5142618;27;26765;-78
2022/01/01 08:16:23;;;;;;;;;;;;;;;15.39;71.66;102146.38;5142525;27;53936;-79
2022/01/01 08:18:48;;;;;;;;;;;;;;;15.40;71.28;102148.09;5142493;27;56218;-79
2022/01/01 08:21:13;;;;;;;;;;;;;;;15.42;71.30;102156.72;5144237;27;26964;-79
2022/01/01 08:23:38;;;;;;;;;;;;;;;15.43;71.58;102158.44;5144684;27;27946;-78
2022/01/01 08:26:03;;;;;;;;;;;;;;;15.44;71.76;102165.38;5143995;27;27073;-82
2022/01/01 08:28:29;;;;;;;;;;;;;;;15.46;71.49;102163.56;5145993;27;27511;-78
2022/01/01 08:30:54;;;;;;;;;;;;;;;15.48;71.23;102166.97;5144231;27;40281;-79
2022/01/01 08:33:20;;;;;;;;;;;;;;;15.51;71.20;102160.03;5144737;27;27129;-79
2022/01/01 08:35:45;;;;;;;;;;;;;;;15.51;71.25;102162.63;5144079;27;36019;-79
2022/01/01 08:38:10;;;;;;;;;;;;;;;15.53;71.68;102158.25;5143737;27;36267;-79
2022/01/01 08:40:35;;;;;;;;;;;;;;;15.56;71.51;102158.19;5143760;27;26987;-79
2022/01/01 08:43:01;;;;;;;;;;;;;;;15.57;71.10;102165.09;5142415;27;56810;-79
2022/01/01 08:45:26;;;;;;;;;;;;;;;15.57;71.44;102159.88;5143116;27;26788;-79
2022/01/01 08:47:51;;;;;;;;;;;;;;;15.61;71.08;102161.53;5142167;27;55827;-79
2022/01/01 08:50:17;;;;;;;;;;;;;;;15.62;71.39;102142.41;5145827;27;26459;-79
2022/01/01 08:52:43;;;;;;;;;;;;;;;15.65;71.29;102142.31;5150287;27;26792;-79
2022/01/01 08:55:08;;;;;;;;;;;;;;;15.66;71.00;102144.03;5147259;27;26860;-79
2022/01/01 08:57:33;;;;;;;;;;;;;;;15.68;71.40;102144.84;5146650;27;26938;-79
2022/01/01 08:59:59;;;;;;;;;;;;;;;15.69;70.91;102133.53;5145967;27;26931;-79
2022/01/01 09:02:25;;;;;;;;;;;;;;;15.72;71.16;102129.09;5144864;27;26911;-79
2022/01/01 09:04:50;;;;;;;;;;;;;;;15.76;71.61;102129.88;5145144;27;26794;-79
2022/01/01 09:07:15;;;;;;;;;;;;;;;15.58;71.48;102091.28;5144580;27;34495;-79
2022/01/01 09:09:41;;;;;;;;;;;;;;;15.84;70.81;102134.03;5143384;27;27001;-79
2022/01/01 09:12:07;;;;;;;;;;;;;;;15.84;71.61;102133.16;5143583;27;26976;-79
2022/01/01 09:14:32;;;;;;;;;;;;;;;15.90;71.12;102139.06;5143423;27;26807;-78
2022/01/01 09:16:57;;;;;;;;;;;;;;;15.90;70.87;102138.19;5123286;27;53313;-79
2022/01/01 09:19:22;;;;;;;;;;;;;;;15.89;70.86;102136.50;5143255;27;26972;-79
2022/01/01 09:21:47;;;;;;;;;;;;;;;15.91;70.79;102129.50;5142156;27;56148;-79
2022/01/01 09:24:13;;;;;;;;;;;;;;;15.94;70.83;102129.41;5143417;27;26758;-79
2022/01/01 09:26:38;;;;;;;;;;;;;;;15.96;70.71;102119.81;5141063;27;57208;-79
2022/01/01 09:29:04;;;;;;;;;;;;;;;15.97;70.15;102139.78;5142473;27;54146;-79
2022/01/01 09:31:29;;;;;;;;;;;;;;;15.98;70.65;102136.25;5144649;27;26946;-79
2022/01/01 09:33:55;;;;;;;;;;;;;;;15.97;70.21;102145.00;5144231;27;26934;-79
2022/01/01 09:36:21;;;;;;;;;;;;;;;15.96;68.88;102148.50;5142657;27;56681;-79
2022/01/01 09:38:46;;;;;;;;;;;;;;;15.96;70.18;102143.28;5143807;27;26997;-79
2022/01/01 09:41:13;;;;;;;;;;;;;;;15.97;70.18;102150.22;5128318;27;28638;-79
2022/01/01 09:43:39;;;;;;;;;;;;;;;16.00;69.91;102155.34;5147973;27;27074;-79
2022/01/01 09:46:04;;;;;;;;;;;;;;;16.03;70.25;102155.25;5146703;27;26869;-79
2022/01/01 09:48:30;;;;;;;;;;;;;;;16.08;70.27;102157.75;5145420;27;27006;-79
2022/01/01 09:50:57;;;;;;;;;;;;;;;16.11;70.46;102153.31;5144323;27;26953;-79
2022/01/01 09:53:24;;;;;;;;;;;;;;;16.14;70.43;102148.00;5144675;27;26739;-80
2022/01/01 09:55:50;;;;;;;;;;;;;;;16.18;69.10;102147.03;5144982;27;26977;-79
2022/01/01 09:58:15;;;;;;;;;;;;;;;16.18;69.40;102139.22;5144124;27;26781;-79
2022/01/01 10:00:40;;;;;;;;;;;;;;;16.18;68.59;102146.16;5143509;27;38193;-79
2022/01/01 10:03:09;;;;;;;;;;;;;;;16.20;69.04;102142.63;5144013;27;54404;-79
2022/01/01 10:05:36;;;;;;;;;;;;;;;16.21;69.04;102138.25;5145021;27;28021;-78
2022/01/01 10:08:01;;;;;;;;;;;;;;;16.19;68.86;102130.50;5144077;27;27123;-79
2022/01/01 10:10:26;;;;;;;;;;;;;;;16.20;69.43;102137.41;5143605;27;26808;-79
2022/01/01 10:12:52;;;;;;;;;;;;;;;16.21;69.05;102127.84;5143996;27;27059;-79
2022/01/01 10:15:18;;;;;;;;;;;;;;;16.20;69.43;102126.97;5143248;27;27015;-79
2022/01/01 10:17:43;;;;;;;;;;;;;;;16.24;69.01;102118.16;5143224;27;26916;-79
2022/01/01 10:20:09;;;;;;;;;;;;;;;16.26;68.96;102112.94;5143500;27;27059;-79
2022/01/01 10:22:35;;;;;;;;;;;;;;;16.28;69.19;102109.38;5145255;27;26902;-79
2022/01/01 10:27:56;;;;;;;;;;;;;;;16.33;68.96;102096.22;5144159;27;26601;-79
2022/01/01 10:30:24;;;;;;;;;;;;;;;16.34;68.93;102096.19;5144564;27;27767;-80
2022/01/01 10:32:58;;;;;;;;;;;;;;;16.35;69.29;102086.56;5144319;27;27037;-79
2022/01/01 10:35:24;;;;;;;;;;;;;;;16.35;68.74;102087.44;5143099;27;27101;-79
2022/01/01 10:37:49;;;;;;;;;;;;;;;16.33;68.67;102086.63;5145166;27;38025;-80
2022/01/01 10:40:23;;;;;;;;;;;;;;;16.33;68.96;102085.78;5146165;27;27009;-80
2022/01/01 10:42:49;;;;;;;;;;;;;;;16.35;68.60;102095.25;5146169;27;26809;-78
2022/01/01 10:45:27;;;;;;;;;;;;;;;16.32;68.33;102092.75;5143818;27;26950;-79
2022/01/01 10:48:03;;;;;;;;;;;;;;;16.33;68.41;102091.84;5142417;27;26871;-80
2022/01/01 10:50:32;;;;;;;;;;;;;;;16.33;68.49;102081.44;5142042;27;26820;-81
2022/01/01 10:53:08;;;;;;;;;;;;;;;16.34;68.50;102077.94;5142191;27;27155;-80
2022/01/01 10:55:33;;;;;;;;;;;;;;;16.35;68.27;102071.78;5123807;27;27911;-80
2022/01/01 10:58:00;;;;;;;;;;;;;;;16.35;67.81;102063.97;5141522;27;54163;-80
2022/01/01 11:00:26;;;;;;;;;;;;;;;16.35;67.83;102069.19;5142076;27;27133;-80
2022/01/01 11:02:53;;;;;;;;;;;;;;;16.34;68.39;102067.50;5141977;27;26919;-80
2022/01/01 11:05:30;;;;;;;;;;;;;;;16.34;68.36;102072.72;5141864;27;27386;-80
2022/01/01 11:07:55;;;;;;;;;;;;;;;16.33;67.12;102057.97;5142024;27;26816;-81
2022/01/01 11:10:22;;;;;;;;;;;;;;;16.34;67.20;102057.06;5142045;27;26941;-80
2022/01/01 11:12:47;;;;;;;;;;;;;;;16.37;68.87;102046.53;5140638;27;26815;-80
2022/01/01 11:15:13;;;;;;;;;;;;;;;16.39;68.16;102054.31;5140905;27;27503;-80
2022/01/01 11:17:38;;;;;;;;;;;;;;;16.39;68.33;102062.13;5141017;27;27243;-80
2022/01/01 11:20:06;;;;;;;;;;;;;;;16.38;68.20;102056.06;5144039;27;26729;-80
2022/01/01 11:22:32;;;;;;;;;;;;;;;16.40;68.09;102056.88;5139957;27;26830;-80
2022/01/01 11:24:59;;;;;;;;;;;;;;;16.44;68.36;102058.50;5140596;27;27135;-81
2022/01/01 11:27:25;;;;;;;;;;;;;;;16.44;68.21;102058.50;5140734;27;26936;-81
2022/01/01 11:29:52;;;;;;;;;;;;;;;16.47;67.83;102061.91;5143255;27;27169;-81
2022/01/01 11:32:19;;;;;;;;;;;;;;;16.47;67.78;102067.13;5148801;27;27093;-81
2022/01/01 11:34:46;;;;;;;;;;;;;;;16.49;67.87;102070.56;5141223;27;27671;-81
2022/01/01 11:37:12;;;;;;;;;;;;;;;16.49;67.94;102060.97;5140534;27;26853;-81
2022/01/01 11:39:37;;;;;;;;;;;;;;;16.52;67.75;102060.88;5140188;27;28159;-81
2022/01/01 11:42:14;;;;;;;;;;;;;;;16.54;68.12;102053.00;5140281;27;26882;-81
2022/01/01 11:44:40;;;;;;;;;;;;;;;16.57;67.92;102059.00;5140382;27;26953;-81
2022/01/01 11:47:12;;;;;;;;;;;;;;;16.59;67.56;102045.94;5140067;27;27216;-81
2022/01/01 11:49:38;;;;;;;;;;;;;;;16.60;67.72;102048.50;5138878;27;27850;-81
2022/01/01 11:52:03;;;;;;;;;;;;;;;16.61;68.28;102044.16;5139427;27;33455;-79
2022/01/01 11:54:31;;;;;;;;;;;;;;;16.63;67.53;102037.13;5139645;27;27107;-80
2022/01/01 11:56:58;;;;;;;;;;;;;;;16.63;67.90;102047.56;5139681;27;27228;-80
2022/01/01 11:59:28;;;;;;;;;;;;;;;16.63;66.90;102047.56;5140404;27;26909;-80
2022/01/01 12:01:55;;;;;;;;;;;;;;;16.66;67.66;102042.22;5143352;27;26795;-80
2022/01/01 12:04:24;;;;;;;;;;;;;;;16.66;67.89;102043.09;5147877;27;27018;-80
2022/01/01 12:06:54;;;;;;;;;;;;;;;16.67;67.48;102043.94;5141361;27;26902;-80
2022/01/01 12:09:19;;;;;;;;;;;;;;;16.71;67.63;102040.34;5140192;27;26998;-80
2022/01/01 12:11:49;;;;;;;;;;;;;;;16.75;67.73;102031.53;5140921;27;26987;-80
2022/01/01 12:14:28;;;;;;;;;;;;;;;16.78;68.02;102029.69;5140621;27;26911;-81
2022/01/01 12:16:54;;;;;;;;;;;;;;;16.81;67.26;102034.78;5141122;27;26808;-81
2022/01/01 12:19:21;;;;;;;;;;;;;;;16.83;67.71;102045.19;5142376;27;26756;-79
2022/01/01 12:21:48;;;;;;;;;;;;;;;16.85;66.99;102038.16;5143788;27;26880;-80
2022/01/01 12:24:20;;;;;;;;;;;;;;;16.86;67.68;102039.88;5143780;27;27194;-80
2022/01/01 12:26:50;;;;;;;;;;;;;;;16.88;68.00;102032.84;5143678;27;26875;-80
2022/01/01 12:29:20;;;;;;;;;;;;;;;16.85;67.51;102022.50;5143739;27;27073;-80
2022/01/01 12:31:56;;;;;;;;;;;;;;;16.87;67.36;102031.16;5143061;27;26792;-80
2022/01/01 12:34:22;;;;;;;;;;;;;;;16.84;67.03;102031.22;5143210;27;27638;-80
2022/01/01 12:36:54;;;;;;;;;;;;;;;16.83;67.16;102034.75;5142687;27;26993;-79